sensor_id;sensor_type;location;lat;lon;timestamp;P1;durP1;ratioP1;P2;durP2;ratioP2
34805;SDS011;65084;42.196;25.326;2024-03-08T00:00:33;26.35;;;17.77;;
34805;SDS011;65084;42.196;25.326;2024-03-08T00:03:02;27.15;;;17.55;;
34805;SDS011;65084;42.196;25.326;2024-03-08T00:05:30;32.97;;;17.67;;
34805;SDS011;65084;42.196;25.326;2024-03-08T00:07:57;30.23;;;17.27;;
34805;SDS011;65084;42.196;25.326;2024-03-08T00:10:26;32.13;;;18.02;;
34805;SDS011;65084;42.196;25.326;2024-03-08T00:12:54;28.83;;;17.75;;
34805;SDS011;65084;42.196;25.326;2024-03-08T00:15:22;30.08;;;17.63;;
34805;SDS011;65084;42.196;25.326;2024-03-08T00:17:50;25.25;;;16.70;;
34805;SDS011;65084;42.196;25.326;2024-03-08T00:20:18;26.17;;;17.55;;
34805;SDS011;65084;42.196;25.326;2024-03-08T00:22:46;32.60;;;18.48;;
34805;SDS011;65084;42.196;25.326;2024-03-08T00:25:13;25.42;;;16.42;;
34805;SDS011;65084;42.196;25.326;2024-03-08T00:27:42;21.05;;;16.00;;
34805;SDS011;65084;42.196;25.326;2024-03-08T00:30:10;26.58;;;17.00;;
34805;SDS011;65084;42.196;25.326;2024-03-08T00:32:38;27.23;;;17.48;;
34805;SDS011;65084;42.196;25.326;2024-03-08T00:35:06;25.20;;;16.15;;
34805;SDS011;65084;42.196;25.326;2024-03-08T00:37:33;26.15;;;17.48;;
34805;SDS011;65084;42.196;25.326;2024-03-08T00:40:01;26.00;;;16.92;;
34805;SDS011;65084;42.196;25.326;2024-03-08T00:42:28;28.13;;;17.27;;
34805;SDS011;65084;42.196;25.326;2024-03-08T00:44:57;30.85;;;17.63;;
34805;SDS011;65084;42.196;25.326;2024-03-08T00:47:24;27.15;;;17.30;;
34805;SDS011;65084;42.196;25.326;2024-03-08T00:49:52;27.65;;;17.02;;
34805;SDS011;65084;42.196;25.326;2024-03-08T00:52:21;29.00;;;17.20;;
34805;SDS011;65084;42.196;25.326;2024-03-08T00:54:49;25.05;;;16.67;;
34805;SDS011;65084;42.196;25.326;2024-03-08T00:57:16;30.63;;;18.35;;
34805;SDS011;65084;42.196;25.326;2024-03-08T00:59:44;26.25;;;18.13;;
34805;SDS011;65084;42.196;25.326;2024-03-08T01:02:12;31.20;;;16.35;;
34805;SDS011;65084;42.196;25.326;2024-03-08T01:04:40;27.10;;;16.80;;
34805;SDS011;65084;42.196;25.326;2024-03-08T01:07:07;27.88;;;17.00;;
34805;SDS011;65084;42.196;25.326;2024-03-08T01:09:34;28.23;;;16.88;;
34805;SDS011;65084;42.196;25.326;2024-03-08T01:12:01;28.05;;;17.30;;
34805;SDS011;65084;42.196;25.326;2024-03-08T01:14:29;31.50;;;17.27;;
34805;SDS011;65084;42.196;25.326;2024-03-08T01:16:56;29.48;;;17.85;;
34805;SDS011;65084;42.196;25.326;2024-03-08T01:19:25;29.92;;;17.92;;
34805;SDS011;65084;42.196;25.326;2024-03-08T01:21:52;32.20;;;18.02;;
34805;SDS011;65084;42.196;25.326;2024-03-08T01:24:21;34.63;;;17.92;;
34805;SDS011;65084;42.196;25.326;2024-03-08T01:26:50;32.35;;;18.65;;
34805;SDS011;65084;42.196;25.326;2024-03-08T01:29:17;32.05;;;18.25;;
34805;SDS011;65084;42.196;25.326;2024-03-08T01:31:44;34.38;;;18.80;;
34805;SDS011;65084;42.196;25.326;2024-03-08T01:34:12;36.88;;;18.60;;
34805;SDS011;65084;42.196;25.326;2024-03-08T01:36:40;36.38;;;19.95;;
34805;SDS011;65084;42.196;25.326;2024-03-08T01:39:07;36.50;;;20.50;;
34805;SDS011;65084;42.196;25.326;2024-03-08T01:41:35;37.17;;;20.77;;
34805;SDS011;65084;42.196;25.326;2024-03-08T01:44:02;35.35;;;19.98;;
34805;SDS011;65084;42.196;25.326;2024-03-08T01:46:32;49.05;;;21.30;;
34805;SDS011;65084;42.196;25.326;2024-03-08T01:49:00;35.00;;;20.50;;
34805;SDS011;65084;42.196;25.326;2024-03-08T01:51:28;38.30;;;20.40;;
34805;SDS011;65084;42.196;25.326;2024-03-08T01:53:57;41.30;;;20.67;;
34805;SDS011;65084;42.196;25.326;2024-03-08T01:56:25;41.45;;;21.05;;
34805;SDS011;65084;42.196;25.326;2024-03-08T01:58:52;38.38;;;20.95;;
34805;SDS011;65084;42.196;25.326;2024-03-08T02:01:21;32.80;;;18.20;;
34805;SDS011;65084;42.196;25.326;2024-03-08T02:03:49;36.10;;;19.88;;
34805;SDS011;65084;42.196;25.326;2024-03-08T02:06:16;33.45;;;20.13;;
34805;SDS011;65084;42.196;25.326;2024-03-08T02:08:43;39.08;;;20.33;;
34805;SDS011;65084;42.196;25.326;2024-03-08T02:11:12;39.63;;;20.48;;
34805;SDS011;65084;42.196;25.326;2024-03-08T02:13:41;33.15;;;19.85;;
34805;SDS011;65084;42.196;25.326;2024-03-08T02:16:08;37.08;;;20.70;;
34805;SDS011;65084;42.196;25.326;2024-03-08T02:18:35;31.48;;;18.45;;
34805;SDS011;65084;42.196;25.326;2024-03-08T02:21:06;39.78;;;20.02;;
34805;SDS011;65084;42.196;25.326;2024-03-08T02:23:33;36.63;;;19.30;;
34805;SDS011;65084;42.196;25.326;2024-03-08T02:26:02;38.83;;;19.90;;
34805;SDS011;65084;42.196;25.326;2024-03-08T02:28:29;38.88;;;21.67;;
34805;SDS011;65084;42.196;25.326;2024-03-08T02:30:57;41.17;;;21.98;;
34805;SDS011;65084;42.196;25.326;2024-03-08T02:33:24;38.45;;;20.52;;
34805;SDS011;65084;42.196;25.326;2024-03-08T02:35:52;36.63;;;20.80;;
34805;SDS011;65084;42.196;25.326;2024-03-08T02:38:21;39.22;;;22.00;;
34805;SDS011;65084;42.196;25.326;2024-03-08T02:40:50;33.53;;;20.98;;
34805;SDS011;65084;42.196;25.326;2024-03-08T02:43:17;34.67;;;20.52;;
34805;SDS011;65084;42.196;25.326;2024-03-08T02:45:45;38.35;;;20.83;;
34805;SDS011;65084;42.196;25.326;2024-03-08T02:48:12;33.88;;;19.65;;
34805;SDS011;65084;42.196;25.326;2024-03-08T02:50:40;42.17;;;19.63;;
34805;SDS011;65084;42.196;25.326;2024-03-08T02:53:08;39.63;;;19.45;;
34805;SDS011;65084;42.196;25.326;2024-03-08T02:55:37;37.97;;;19.50;;
34805;SDS011;65084;42.196;25.326;2024-03-08T02:58:06;37.53;;;20.90;;
34805;SDS011;65084;42.196;25.326;2024-03-08T03:00:35;29.48;;;19.23;;
34805;SDS011;65084;42.196;25.326;2024-03-08T03:03:04;37.40;;;20.83;;
34805;SDS011;65084;42.196;25.326;2024-03-08T03:05:31;44.08;;;20.25;;
34805;SDS011;65084;42.196;25.326;2024-03-08T03:07:59;37.95;;;20.67;;
34805;SDS011;65084;42.196;25.326;2024-03-08T03:10:26;42.22;;;20.42;;
34805;SDS011;65084;42.196;25.326;2024-03-08T03:12:55;40.55;;;20.38;;
34805;SDS011;65084;42.196;25.326;2024-03-08T03:15:23;44.75;;;21.23;;
34805;SDS011;65084;42.196;25.326;2024-03-08T03:17:50;34.92;;;21.58;;
34805;SDS011;65084;42.196;25.326;2024-03-08T03:20:18;36.75;;;19.98;;
34805;SDS011;65084;42.196;25.326;2024-03-08T03:22:57;39.15;;;21.48;;
34805;SDS011;65084;42.196;25.326;2024-03-08T03:25:26;39.67;;;20.08;;
34805;SDS011;65084;42.196;25.326;2024-03-08T03:28:00;40.55;;;20.15;;
34805;SDS011;65084;42.196;25.326;2024-03-08T03:30:28;37.58;;;19.58;;
34805;SDS011;65084;42.196;25.326;2024-03-08T03:32:58;42.58;;;21.08;;
34805;SDS011;65084;42.196;25.326;2024-03-08T03:35:26;36.75;;;20.08;;
34805;SDS011;65084;42.196;25.326;2024-03-08T03:37:54;37.08;;;20.45;;
34805;SDS011;65084;42.196;25.326;2024-03-08T03:40:32;40.92;;;20.13;;
34805;SDS011;65084;42.196;25.326;2024-03-08T03:43:01;38.03;;;21.13;;
34805;SDS011;65084;42.196;25.326;2024-03-08T03:45:29;43.90;;;20.00;;
34805;SDS011;65084;42.196;25.326;2024-03-08T03:47:59;39.95;;;20.33;;
34805;SDS011;65084;42.196;25.326;2024-03-08T03:50:27;35.10;;;19.70;;
34805;SDS011;65084;42.196;25.326;2024-03-08T03:52:54;38.35;;;20.13;;
34805;SDS011;65084;42.196;25.326;2024-03-08T03:55:22;34.92;;;18.70;;
34805;SDS011;65084;42.196;25.326;2024-03-08T03:57:49;35.80;;;19.52;;
34805;SDS011;65084;42.196;25.326;2024-03-08T04:00:19;33.05;;;19.20;;
34805;SDS011;65084;42.196;25.326;2024-03-08T04:02:46;34.38;;;19.33;;
34805;SDS011;65084;42.196;25.326;2024-03-08T04:05:14;40.22;;;20.38;;
34805;SDS011;65084;42.196;25.326;2024-03-08T04:07:41;37.45;;;20.23;;
34805;SDS011;65084;42.196;25.326;2024-03-08T04:10:11;33.15;;;19.50;;
34805;SDS011;65084;42.196;25.326;2024-03-08T04:12:39;33.97;;;20.70;;
34805;SDS011;65084;42.196;25.326;2024-03-08T04:15:07;38.95;;;20.98;;
34805;SDS011;65084;42.196;25.326;2024-03-08T04:17:37;38.90;;;21.25;;
34805;SDS011;65084;42.196;25.326;2024-03-08T04:20:05;36.95;;;21.58;;
34805;SDS011;65084;42.196;25.326;2024-03-08T04:22:35;44.97;;;21.35;;
34805;SDS011;65084;42.196;25.326;2024-03-08T04:25:02;33.97;;;19.15;;
34805;SDS011;65084;42.196;25.326;2024-03-08T04:27:29;44.85;;;21.08;;
34805;SDS011;65084;42.196;25.326;2024-03-08T04:29:58;39.83;;;20.50;;
34805;SDS011;65084;42.196;25.326;2024-03-08T04:32:25;39.55;;;20.40;;
34805;SDS011;65084;42.196;25.326;2024-03-08T04:34:55;42.95;;;20.90;;
34805;SDS011;65084;42.196;25.326;2024-03-08T04:37:23;42.88;;;20.27;;
34805;SDS011;65084;42.196;25.326;2024-03-08T04:39:51;39.80;;;20.42;;
34805;SDS011;65084;42.196;25.326;2024-03-08T04:42:18;34.92;;;20.42;;
34805;SDS011;65084;42.196;25.326;2024-03-08T04:44:46;35.30;;;20.33;;
34805;SDS011;65084;42.196;25.326;2024-03-08T04:47:13;38.35;;;21.50;;
34805;SDS011;65084;42.196;25.326;2024-03-08T04:49:41;43.22;;;21.52;;
34805;SDS011;65084;42.196;25.326;2024-03-08T04:52:10;40.35;;;21.00;;
34805;SDS011;65084;42.196;25.326;2024-03-08T04:54:37;33.38;;;21.13;;
34805;SDS011;65084;42.196;25.326;2024-03-08T04:57:05;48.38;;;22.38;;
34805;SDS011;65084;42.196;25.326;2024-03-08T04:59:32;42.17;;;23.05;;
34805;SDS011;65084;42.196;25.326;2024-03-08T05:02:01;42.22;;;24.70;;
34805;SDS011;65084;42.196;25.326;2024-03-08T05:04:28;43.08;;;25.35;;
34805;SDS011;65084;42.196;25.326;2024-03-08T05:06:55;52.35;;;24.98;;
34805;SDS011;65084;42.196;25.326;2024-03-08T05:09:27;56.15;;;29.30;;
34805;SDS011;65084;42.196;25.326;2024-03-08T05:11:56;49.50;;;27.80;;
34805;SDS011;65084;42.196;25.326;2024-03-08T05:14:24;67.47;;;40.40;;
34805;SDS011;65084;42.196;25.326;2024-03-08T05:16:52;53.60;;;31.30;;
34805;SDS011;65084;42.196;25.326;2024-03-08T05:19:19;64.35;;;38.20;;
34805;SDS011;65084;42.196;25.326;2024-03-08T05:21:47;87.00;;;49.88;;
34805;SDS011;65084;42.196;25.326;2024-03-08T05:24:14;115.30;;;64.43;;
34805;SDS011;65084;42.196;25.326;2024-03-08T05:26:43;137.38;;;83.45;;
34805;SDS011;65084;42.196;25.326;2024-03-08T05:29:11;143.70;;;85.10;;
34805;SDS011;65084;42.196;25.326;2024-03-08T05:31:42;121.55;;;72.80;;
34805;SDS011;65084;42.196;25.326;2024-03-08T05:34:12;153.63;;;91.63;;
34805;SDS011;65084;42.196;25.326;2024-03-08T05:36:40;170.35;;;88.88;;
34805;SDS011;65084;42.196;25.326;2024-03-08T05:39:09;326.15;;;157.13;;
34805;SDS011;65084;42.196;25.326;2024-03-08T05:41:37;404.65;;;228.82;;
34805;SDS011;65084;42.196;25.326;2024-03-08T05:44:05;217.82;;;127.68;;
34805;SDS011;65084;42.196;25.326;2024-03-08T05:46:33;215.30;;;130.18;;
34805;SDS011;65084;42.196;25.326;2024-03-08T05:49:00;107.72;;;66.57;;
34805;SDS011;65084;42.196;25.326;2024-03-08T05:51:30;116.97;;;71.07;;
34805;SDS011;65084;42.196;25.326;2024-03-08T05:53:59;72.15;;;45.78;;
34805;SDS011;65084;42.196;25.326;2024-03-08T05:56:27;91.75;;;58.58;;
34805;SDS011;65084;42.196;25.326;2024-03-08T05:58:55;73.28;;;46.85;;
34805;SDS011;65084;42.196;25.326;2024-03-08T06:01:24;56.28;;;33.70;;
34805;SDS011;65084;42.196;25.326;2024-03-08T06:03:52;53.63;;;31.60;;
34805;SDS011;65084;42.196;25.326;2024-03-08T06:06:20;53.35;;;34.88;;
34805;SDS011;65084;42.196;25.326;2024-03-08T06:08:48;59.78;;;31.83;;
34805;SDS011;65084;42.196;25.326;2024-03-08T06:11:15;107.63;;;51.80;;
34805;SDS011;65084;42.196;25.326;2024-03-08T06:13:43;56.25;;;28.88;;
34805;SDS011;65084;42.196;25.326;2024-03-08T06:16:10;166.57;;;74.18;;
34805;SDS011;65084;42.196;25.326;2024-03-08T06:18:39;108.20;;;52.85;;
34805;SDS011;65084;42.196;25.326;2024-03-08T06:21:06;121.47;;;60.65;;
34805;SDS011;65084;42.196;25.326;2024-03-08T06:23:36;91.80;;;44.75;;
34805;SDS011;65084;42.196;25.326;2024-03-08T06:26:04;154.70;;;63.20;;
34805;SDS011;65084;42.196;25.326;2024-03-08T06:28:31;126.32;;;54.63;;
34805;SDS011;65084;42.196;25.326;2024-03-08T06:30:59;62.53;;;31.30;;
34805;SDS011;65084;42.196;25.326;2024-03-08T06:33:27;58.88;;;31.02;;
34805;SDS011;65084;42.196;25.326;2024-03-08T06:35:56;61.75;;;29.52;;
34805;SDS011;65084;42.196;25.326;2024-03-08T06:38:24;49.58;;;25.70;;
34805;SDS011;65084;42.196;25.326;2024-03-08T06:40:51;72.88;;;37.17;;
34805;SDS011;65084;42.196;25.326;2024-03-08T06:43:19;61.63;;;31.77;;
34805;SDS011;65084;42.196;25.326;2024-03-08T06:45:47;50.45;;;26.55;;
34805;SDS011;65084;42.196;25.326;2024-03-08T06:48:14;73.60;;;38.83;;
34805;SDS011;65084;42.196;25.326;2024-03-08T06:50:42;48.03;;;26.05;;
34805;SDS011;65084;42.196;25.326;2024-03-08T06:53:11;41.55;;;21.95;;
34805;SDS011;65084;42.196;25.326;2024-03-08T06:55:38;30.75;;;18.65;;
34805;SDS011;65084;42.196;25.326;2024-03-08T06:58:06;36.30;;;18.83;;
34805;SDS011;65084;42.196;25.326;2024-03-08T07:00:33;34.20;;;18.42;;
34805;SDS011;65084;42.196;25.326;2024-03-08T07:03:01;27.95;;;18.17;;
34805;SDS011;65084;42.196;25.326;2024-03-08T07:05:28;26.88;;;17.98;;
34805;SDS011;65084;42.196;25.326;2024-03-08T07:07:56;28.83;;;17.95;;
34805;SDS011;65084;42.196;25.326;2024-03-08T07:10:24;30.77;;;18.38;;
34805;SDS011;65084;42.196;25.326;2024-03-08T07:12:52;27.55;;;17.67;;
34805;SDS011;65084;42.196;25.326;2024-03-08T07:15:19;34.90;;;19.67;;
34805;SDS011;65084;42.196;25.326;2024-03-08T07:17:48;29.35;;;19.65;;
34805;SDS011;65084;42.196;25.326;2024-03-08T07:20:17;33.80;;;18.25;;
34805;SDS011;65084;42.196;25.326;2024-03-08T07:22:45;32.83;;;20.83;;
34805;SDS011;65084;42.196;25.326;2024-03-08T07:25:15;35.42;;;20.02;;
34805;SDS011;65084;42.196;25.326;2024-03-08T07:27:48;29.85;;;20.33;;
34805;SDS011;65084;42.196;25.326;2024-03-08T07:30:16;31.92;;;18.92;;
34805;SDS011;65084;42.196;25.326;2024-03-08T07:32:57;28.25;;;16.65;;
34805;SDS011;65084;42.196;25.326;2024-03-08T07:35:27;29.55;;;15.43;;
34805;SDS011;65084;42.196;25.326;2024-03-08T07:37:54;31.35;;;17.73;;
34805;SDS011;65084;42.196;25.326;2024-03-08T07:40:21;28.10;;;15.93;;
34805;SDS011;65084;42.196;25.326;2024-03-08T07:42:50;26.13;;;16.45;;
34805;SDS011;65084;42.196;25.326;2024-03-08T07:45:18;34.33;;;17.50;;
34805;SDS011;65084;42.196;25.326;2024-03-08T07:47:47;27.02;;;16.42;;
34805;SDS011;65084;42.196;25.326;2024-03-08T07:50:14;30.52;;;17.42;;
34805;SDS011;65084;42.196;25.326;2024-03-08T07:52:41;32.35;;;17.20;;
34805;SDS011;65084;42.196;25.326;2024-03-08T07:55:09;25.45;;;16.50;;
34805;SDS011;65084;42.196;25.326;2024-03-08T07:57:36;24.10;;;17.52;;
34805;SDS011;65084;42.196;25.326;2024-03-08T08:00:06;31.98;;;17.33;;
34805;SDS011;65084;42.196;25.326;2024-03-08T08:02:34;32.65;;;17.40;;
34805;SDS011;65084;42.196;25.326;2024-03-08T08:05:01;32.58;;;18.67;;
34805;SDS011;65084;42.196;25.326;2024-03-08T08:07:29;31.10;;;17.83;;
34805;SDS011;65084;42.196;25.326;2024-03-08T08:09:56;27.30;;;17.80;;
34805;SDS011;65084;42.196;25.326;2024-03-08T08:12:23;31.80;;;17.58;;
34805;SDS011;65084;42.196;25.326;2024-03-08T08:14:51;31.20;;;18.38;;
34805;SDS011;65084;42.196;25.326;2024-03-08T08:17:19;29.52;;;16.88;;
34805;SDS011;65084;42.196;25.326;2024-03-08T08:19:47;28.25;;;17.42;;
34805;SDS011;65084;42.196;25.326;2024-03-08T08:22:14;31.58;;;18.00;;
34805;SDS011;65084;42.196;25.326;2024-03-08T08:24:43;38.30;;;19.10;;
34805;SDS011;65084;42.196;25.326;2024-03-08T08:27:10;41.78;;;18.63;;
34805;SDS011;65084;42.196;25.326;2024-03-08T08:29:39;40.00;;;20.73;;
34805;SDS011;65084;42.196;25.326;2024-03-08T08:32:06;33.20;;;18.23;;
34805;SDS011;65084;42.196;25.326;2024-03-08T08:34:35;27.98;;;17.10;;
34805;SDS011;65084;42.196;25.326;2024-03-08T08:37:03;27.00;;;15.65;;
34805;SDS011;65084;42.196;25.326;2024-03-08T08:39:30;24.77;;;16.20;;
34805;SDS011;65084;42.196;25.326;2024-03-08T08:41:57;24.25;;;15.73;;
34805;SDS011;65084;42.196;25.326;2024-03-08T08:44:25;23.40;;;16.08;;
34805;SDS011;65084;42.196;25.326;2024-03-08T08:46:52;30.10;;;16.88;;
34805;SDS011;65084;42.196;25.326;2024-03-08T08:49:20;23.90;;;16.65;;
34805;SDS011;65084;42.196;25.326;2024-03-08T08:51:51;25.23;;;16.08;;
34805;SDS011;65084;42.196;25.326;2024-03-08T08:54:18;22.80;;;15.10;;
34805;SDS011;65084;42.196;25.326;2024-03-08T08:56:47;32.97;;;15.10;;
34805;SDS011;65084;42.196;25.326;2024-03-08T08:59:14;24.50;;;16.20;;
34805;SDS011;65084;42.196;25.326;2024-03-08T09:01:44;28.25;;;16.42;;
34805;SDS011;65084;42.196;25.326;2024-03-08T09:04:12;36.33;;;15.77;;
34805;SDS011;65084;42.196;25.326;2024-03-08T09:06:39;32.70;;;17.23;;
34805;SDS011;65084;42.196;25.326;2024-03-08T09:09:08;30.13;;;18.23;;
34805;SDS011;65084;42.196;25.326;2024-03-08T09:11:36;27.90;;;18.42;;
34805;SDS011;65084;42.196;25.326;2024-03-08T09:14:06;32.65;;;19.08;;
34805;SDS011;65084;42.196;25.326;2024-03-08T09:16:34;29.25;;;17.08;;
34805;SDS011;65084;42.196;25.326;2024-03-08T09:19:02;28.13;;;16.45;;
34805;SDS011;65084;42.196;25.326;2024-03-08T09:21:30;30.05;;;15.60;;
34805;SDS011;65084;42.196;25.326;2024-03-08T09:23:57;28.98;;;16.15;;
34805;SDS011;65084;42.196;25.326;2024-03-08T09:26:26;35.58;;;16.63;;
34805;SDS011;65084;42.196;25.326;2024-03-08T09:28:53;25.38;;;15.02;;
34805;SDS011;65084;42.196;25.326;2024-03-08T09:31:21;24.40;;;15.30;;
34805;SDS011;65084;42.196;25.326;2024-03-08T09:33:48;24.05;;;15.25;;
34805;SDS011;65084;42.196;25.326;2024-03-08T09:36:15;23.52;;;14.18;;
34805;SDS011;65084;42.196;25.326;2024-03-08T09:38:43;22.98;;;15.27;;
34805;SDS011;65084;42.196;25.326;2024-03-08T09:41:10;23.50;;;16.08;;
34805;SDS011;65084;42.196;25.326;2024-03-08T09:43:39;23.63;;;15.73;;
34805;SDS011;65084;42.196;25.326;2024-03-08T09:46:06;30.00;;;18.05;;
34805;SDS011;65084;42.196;25.326;2024-03-08T09:48:36;24.08;;;15.27;;
34805;SDS011;65084;42.196;25.326;2024-03-08T09:51:06;27.45;;;16.27;;
34805;SDS011;65084;42.196;25.326;2024-03-08T09:53:38;21.85;;;15.30;;
34805;SDS011;65084;42.196;25.326;2024-03-08T09:56:07;18.58;;;13.68;;
34805;SDS011;65084;42.196;25.326;2024-03-08T09:58:34;21.25;;;13.07;;
34805;SDS011;65084;42.196;25.326;2024-03-08T10:01:20;21.05;;;13.70;;
34805;SDS011;65084;42.196;25.326;2024-03-08T10:03:48;27.63;;;14.50;;
34805;SDS011;65084;42.196;25.326;2024-03-08T10:06:15;25.23;;;13.93;;
34805;SDS011;65084;42.196;25.326;2024-03-08T10:08:43;23.58;;;13.68;;
34805;SDS011;65084;42.196;25.326;2024-03-08T10:11:11;20.30;;;12.60;;
34805;SDS011;65084;42.196;25.326;2024-03-08T10:13:38;19.55;;;13.32;;
34805;SDS011;65084;42.196;25.326;2024-03-08T10:16:06;17.23;;;12.70;;
34805;SDS011;65084;42.196;25.326;2024-03-08T10:18:36;24.10;;;11.73;;
34805;SDS011;65084;42.196;25.326;2024-03-08T10:21:04;24.55;;;12.93;;
34805;SDS011;65084;42.196;25.326;2024-03-08T10:23:32;16.88;;;12.40;;
34805;SDS011;65084;42.196;25.326;2024-03-08T10:26:09;20.15;;;13.27;;
34805;SDS011;65084;42.196;25.326;2024-03-08T10:28:38;23.55;;;12.10;;
34805;SDS011;65084;42.196;25.326;2024-03-08T10:31:05;21.98;;;13.20;;
34805;SDS011;65084;42.196;25.326;2024-03-08T10:33:32;19.00;;;12.93;;
34805;SDS011;65084;42.196;25.326;2024-03-08T10:36:01;19.40;;;12.57;;
34805;SDS011;65084;42.196;25.326;2024-03-08T10:38:29;23.50;;;11.77;;
34805;SDS011;65084;42.196;25.326;2024-03-08T10:40:59;17.23;;;11.57;;
34805;SDS011;65084;42.196;25.326;2024-03-08T10:43:27;14.57;;;11.30;;
34805;SDS011;65084;42.196;25.326;2024-03-08T10:45:57;16.80;;;11.45;;
34805;SDS011;65084;42.196;25.326;2024-03-08T10:48:28;17.40;;;11.60;;
34805;SDS011;65084;42.196;25.326;2024-03-08T10:50:57;16.20;;;11.30;;
34805;SDS011;65084;42.196;25.326;2024-03-08T10:53:28;19.10;;;14.15;;
34805;SDS011;65084;42.196;25.326;2024-03-08T10:55:55;18.83;;;13.23;;
34805;SDS011;65084;42.196;25.326;2024-03-08T10:58:24;18.00;;;13.15;;
34805;SDS011;65084;42.196;25.326;2024-03-08T11:00:53;16.88;;;12.23;;
34805;SDS011;65084;42.196;25.326;2024-03-08T11:08:36;20.30;;;11.73;;
34805;SDS011;65084;42.196;25.326;2024-03-08T11:11:04;18.33;;;11.60;;
34805;SDS011;65084;42.196;25.326;2024-03-08T11:13:34;18.48;;;10.82;;
34805;SDS011;65084;42.196;25.326;2024-03-08T11:16:03;18.35;;;11.23;;
34805;SDS011;65084;42.196;25.326;2024-03-08T11:18:35;20.70;;;11.93;;
34805;SDS011;65084;42.196;25.326;2024-03-08T11:21:02;15.85;;;10.38;;
34805;SDS011;65084;42.196;25.326;2024-03-08T11:23:31;18.90;;;11.25;;
34805;SDS011;65084;42.196;25.326;2024-03-08T11:26:00;18.23;;;11.27;;
34805;SDS011;65084;42.196;25.326;2024-03-08T11:28:32;18.77;;;10.43;;
34805;SDS011;65084;42.196;25.326;2024-03-08T11:33:45;19.92;;;10.77;;
34805;SDS011;65084;42.196;25.326;2024-03-08T11:36:19;15.63;;;10.65;;
34805;SDS011;65084;42.196;25.326;2024-03-08T11:38:47;19.08;;;10.90;;
34805;SDS011;65084;42.196;25.326;2024-03-08T11:41:16;13.13;;;10.00;;
34805;SDS011;65084;42.196;25.326;2024-03-08T11:43:44;14.30;;;8.88;;
34805;SDS011;65084;42.196;25.326;2024-03-08T11:46:12;15.70;;;10.55;;
34805;SDS011;65084;42.196;25.326;2024-03-08T11:48:39;13.40;;;9.75;;
34805;SDS011;65084;42.196;25.326;2024-03-08T11:51:07;14.02;;;9.82;;
34805;SDS011;65084;42.196;25.326;2024-03-08T11:53:36;14.52;;;10.30;;
34805;SDS011;65084;42.196;25.326;2024-03-08T11:56:07;19.48;;;11.00;;
34805;SDS011;65084;42.196;25.326;2024-03-08T11:58:38;21.13;;;12.00;;
34805;SDS011;65084;42.196;25.326;2024-03-08T12:01:05;16.80;;;10.93;;
34805;SDS011;65084;42.196;25.326;2024-03-08T12:03:34;18.73;;;10.68;;
34805;SDS011;65084;42.196;25.326;2024-03-08T12:06:03;18.98;;;9.98;;
34805;SDS011;65084;42.196;25.326;2024-03-08T12:08:31;21.75;;;11.07;;
34805;SDS011;65084;42.196;25.326;2024-03-08T12:10:58;10.55;;;9.02;;
34805;SDS011;65084;42.196;25.326;2024-03-08T12:13:26;15.63;;;9.63;;
34805;SDS011;65084;42.196;25.326;2024-03-08T12:15:56;15.32;;;9.90;;
34805;SDS011;65084;42.196;25.326;2024-03-08T12:18:24;13.85;;;9.80;;
34805;SDS011;65084;42.196;25.326;2024-03-08T12:21:03;14.18;;;9.50;;
34805;SDS011;65084;42.196;25.326;2024-03-08T12:23:32;15.95;;;9.93;;
34805;SDS011;65084;42.196;25.326;2024-03-08T12:26:08;13.60;;;9.85;;
34805;SDS011;65084;42.196;25.326;2024-03-08T12:28:38;15.88;;;10.38;;
34805;SDS011;65084;42.196;25.326;2024-03-08T12:31:07;18.85;;;10.10;;
34805;SDS011;65084;42.196;25.326;2024-03-08T12:33:36;12.70;;;9.82;;
34805;SDS011;65084;42.196;25.326;2024-03-08T12:36:03;16.50;;;10.73;;
34805;SDS011;65084;42.196;25.326;2024-03-08T12:38:32;15.65;;;9.50;;
34805;SDS011;65084;42.196;25.326;2024-03-08T12:41:01;14.43;;;9.18;;
34805;SDS011;65084;42.196;25.326;2024-03-08T12:43:29;14.52;;;9.63;;
34805;SDS011;65084;42.196;25.326;2024-03-08T12:45:58;14.15;;;9.80;;
34805;SDS011;65084;42.196;25.326;2024-03-08T12:48:27;17.63;;;10.23;;
34805;SDS011;65084;42.196;25.326;2024-03-08T12:50:54;13.85;;;10.00;;
34805;SDS011;65084;42.196;25.326;2024-03-08T12:53:22;17.75;;;11.60;;
34805;SDS011;65084;42.196;25.326;2024-03-08T12:55:50;11.65;;;9.70;;
34805;SDS011;65084;42.196;25.326;2024-03-08T12:58:18;13.10;;;9.52;;
34805;SDS011;65084;42.196;25.326;2024-03-08T13:00:46;13.35;;;10.05;;
34805;SDS011;65084;42.196;25.326;2024-03-08T13:03:14;17.25;;;11.02;;
34805;SDS011;65084;42.196;25.326;2024-03-08T13:05:43;19.20;;;11.23;;
34805;SDS011;65084;42.196;25.326;2024-03-08T13:08:10;18.40;;;11.40;;
34805;SDS011;65084;42.196;25.326;2024-03-08T13:10:38;13.55;;;9.98;;
34805;SDS011;65084;42.196;25.326;2024-03-08T13:13:08;16.52;;;10.45;;
34805;SDS011;65084;42.196;25.326;2024-03-08T13:15:36;15.07;;;9.38;;
34805;SDS011;65084;42.196;25.326;2024-03-08T13:18:04;14.10;;;9.95;;
34805;SDS011;65084;42.196;25.326;2024-03-08T13:20:34;13.90;;;10.57;;
34805;SDS011;65084;42.196;25.326;2024-03-08T13:26:07;12.15;;;9.50;;
34805;SDS011;65084;42.196;25.326;2024-03-08T13:28:37;12.90;;;9.32;;
34805;SDS011;65084;42.196;25.326;2024-03-08T13:31:04;12.38;;;9.75;;
34805;SDS011;65084;42.196;25.326;2024-03-08T13:33:35;11.27;;;9.68;;
34805;SDS011;65084;42.196;25.326;2024-03-08T13:36:04;12.30;;;9.55;;
34805;SDS011;65084;42.196;25.326;2024-03-08T13:38:39;10.52;;;8.63;;
34805;SDS011;65084;42.196;25.326;2024-03-08T13:41:09;11.70;;;9.13;;
34805;SDS011;65084;42.196;25.326;2024-03-08T13:43:36;13.35;;;9.13;;
34805;SDS011;65084;42.196;25.326;2024-03-08T13:46:05;14.52;;;9.48;;
34805;SDS011;65084;42.196;25.326;2024-03-08T13:48:33;10.50;;;9.02;;
34805;SDS011;65084;42.196;25.326;2024-03-08T13:51:00;11.88;;;9.05;;
34805;SDS011;65084;42.196;25.326;2024-03-08T13:53:27;12.65;;;8.98;;
34805;SDS011;65084;42.196;25.326;2024-03-08T13:55:55;12.00;;;8.93;;
34805;SDS011;65084;42.196;25.326;2024-03-08T13:58:23;14.63;;;9.93;;
34805;SDS011;65084;42.196;25.326;2024-03-08T14:00:51;11.23;;;9.07;;
34805;SDS011;65084;42.196;25.326;2024-03-08T14:03:18;12.75;;;9.95;;
34805;SDS011;65084;42.196;25.326;2024-03-08T14:05:46;13.48;;;11.07;;
34805;SDS011;65084;42.196;25.326;2024-03-08T14:08:13;16.58;;;11.73;;
34805;SDS011;65084;42.196;25.326;2024-03-08T14:10:42;12.10;;;8.85;;
34805;SDS011;65084;42.196;25.326;2024-03-08T14:13:12;14.80;;;12.63;;
34805;SDS011;65084;42.196;25.326;2024-03-08T14:15:42;10.10;;;8.48;;
34805;SDS011;65084;42.196;25.326;2024-03-08T14:18:11;15.95;;;9.48;;
34805;SDS011;65084;42.196;25.326;2024-03-08T14:20:39;14.27;;;8.90;;
34805;SDS011;65084;42.196;25.326;2024-03-08T14:23:07;14.68;;;10.98;;
34805;SDS011;65084;42.196;25.326;2024-03-08T14:25:34;14.90;;;9.57;;